Pagrindinis puslapis
METAR-TAF:

METAR-TAF

Oro uostai :

Tiandzinas, Kinija

platuma: 39-11N, ilguma: 117-21E, Aukštis: 3 m

Dabartinis oras

Ataskaita buvo paskelbta 20 minutes, ne 17:30 UTC
Vėjas 6 kt iš Rytų/Šiaurės Rytų
Temperatūra 12°C
Drėgmė 40%
Slėgis 1024 hPa
Matomumas: 8000 m

METAR: ZBTJ 311730Z 06003MPS 8000 NSC 12/M01 Q1024 NOSIG

Laikas: 01:50 (17:50 UTC)

Prognozė

Ataskaita buvo paskelbta 2 valandos ir 57 minutes, ne 14:53 UTC
Prognozė galioja nuo 31 metu 18 UTC su 01 metu 18 UTC
Vėjas 10 kt iš Šiaurės Rytų
Matomumas: 3000 m
migla
Tapsmas
nuo 01 metu 04 UTC su 01 metu 05 UTC
Vėjas 6 kt iš Vakarų/Pietvakarių

TAF: ZBTJ 311453Z 3118/0118 04005MPS 3000 HZ NSC TX15/0107Z TN06/0118Z BECMG 0104/0105 24003MPS

Orai ataskaitas ir orų prognozės (METAR, TAF).

turimą stotys yra geltonos ir raudonos taškus žemėlapyje.

Perkelti pele per norėdami pamatyti stoties vardą.

Tada spustelėkite, norėdami matyti oro stebėjimo ir prognozės.

Norėdami pakeisti žemėlapį: spustelėkite ant žalios mygtukų su juodo kryžiaus žemyn,; žalią mygtuką su brūkšneliu, jei norite nutolinti; arba žalių rodyklių gretimoms žemėlapius.


METAR-TAF: